aviador You're here:

TFFR Decoded Metar

POINTE-A-PITRE in ANTILLES
Report Time2018-06-23 12:00:00
UTC Time2018-06-23 12:14:14
Flight Rules vfr VFR
Wind110° at 12 kt
W.Decomp.*RWY 12: 12.0 kt HW 1.0 kt RCW
W.Rank110° ranks 3
Current wind is above 110° avg. (8.0)
Visibility9999 m
Phenomena:N/A
Clouds:Scattered 026 Hf
Broken 032 Hf
Broken 041 Hf
Expected CloudBase > 2,400 ft AGL from Temp-Dew spread
Ceiling3,200 ft
Temp28°C (ISA +13)
Dew Point22°C (70% RH)
Heat Index30.7°C
QNH1017 hPa
Density Alt1,752 ft
Elevation36 ft
Report Wrong Elevation
Raw Report
METAR TFFR 231200Z AUTO 11012KT 9999 SCT026 BKN032 BKN041 28/22 Q1017=

Extra information for TFFR:More info

Metar Taf Metar & Taf Last 4 Metars F.Rules Stats Wind Profile Meteogram Temp Stats Airport Information Weather charts Add Link Nearby VenuesMetar ALERT Operation Metar Decoded Social comments